createdAt,value
2018-09-28T00:01:21.257Z,7.53
2018-09-28T00:03:50.179Z,10.08
2018-09-28T00:06:19.316Z,7.67
2018-09-28T00:08:48.136Z,8.35
2018-09-28T00:11:16.803Z,8.23
2018-09-28T00:13:45.301Z,9.73
2018-09-28T00:16:13.764Z,7.45
2018-09-28T00:18:42.242Z,7.87
2018-09-28T00:21:11.060Z,8.45
2018-09-28T00:23:39.531Z,6.20
2018-09-28T00:26:08.804Z,8.28
2018-09-28T00:28:37.733Z,8.65
2018-09-28T00:31:06.590Z,9.63
2018-09-28T00:33:35.066Z,8.80
2018-09-28T00:36:03.570Z,9.10
2018-09-28T00:38:32.047Z,6.78
2018-09-28T00:41:00.525Z,9.80
2018-09-28T00:43:29.003Z,9.35
2018-09-28T00:45:57.803Z,7.33
2018-09-28T00:48:26.639Z,7.22
2018-09-28T00:50:55.132Z,11.22
2018-09-28T00:53:23.624Z,6.20
2018-09-28T00:55:52.453Z,8.38
2018-09-28T00:58:20.972Z,16.20
2018-09-28T01:00:49.798Z,7.20
2018-09-28T01:03:18.536Z,7.42
2018-09-28T01:05:47.527Z,9.50
2018-09-28T01:08:16.001Z,9.45
2018-09-28T01:10:44.466Z,7.62
2018-09-28T01:13:13.263Z,7.50
2018-09-28T01:15:42.428Z,9.60
2018-09-28T01:18:11.200Z,15.25
2018-09-28T01:20:39.667Z,8.30
2018-09-28T01:23:08.161Z,4.92
2018-09-28T01:25:37.282Z,9.08
2018-09-28T01:28:05.840Z,13.58
2018-09-28T01:30:34.334Z,11.73
2018-09-28T01:33:02.818Z,11.93
2018-09-28T01:35:31.331Z,9.23
2018-09-28T01:38:00.387Z,9.80
2018-09-28T01:40:29.214Z,7.85
2018-09-28T01:42:57.752Z,17.42
2018-09-28T01:45:26.248Z,10.75
2018-09-28T01:47:54.716Z,9.10
2018-09-28T01:50:23.176Z,7.97
2018-09-28T01:52:52.014Z,11.10
2018-09-28T01:55:20.808Z,11.43
2018-09-28T01:57:49.325Z,8.28
2018-09-28T02:00:18.141Z,11.22
2018-09-28T02:02:46.708Z,6.03
2018-09-28T02:05:15.577Z,8.08
2018-09-28T02:07:44.066Z,7.60
2018-09-28T02:10:12.901Z,9.58
2018-09-28T02:12:41.673Z,8.68
2018-09-28T02:15:10.590Z,10.20
2018-09-28T02:17:39.757Z,9.18
2018-09-28T02:20:08.581Z,7.10
2018-09-28T02:22:37.388Z,7.92
2018-09-28T02:25:05.862Z,8.03
2018-09-28T02:27:34.377Z,9.65
2018-09-28T02:30:03.180Z,9.50
2018-09-28T02:32:31.665Z,10.00
2018-09-28T02:35:00.149Z,9.00
2018-09-28T02:37:28.632Z,11.57
2018-09-28T02:39:57.131Z,9.80
2018-09-28T02:42:26.302Z,11.57
2018-09-28T02:44:55.119Z,9.90
2018-09-28T02:47:23.594Z,8.48
2018-09-28T02:49:52.444Z,9.20
2018-09-28T02:52:21.291Z,8.93
2018-09-28T02:54:50.109Z,10.35
2018-09-28T02:57:20.045Z,11.38
2018-09-28T02:59:49.485Z,9.00
2018-09-28T03:02:18.682Z,8.95
2018-09-28T03:04:47.177Z,9.93
2018-09-28T03:07:15.679Z,8.25
2018-09-28T03:09:44.489Z,7.22
2018-09-28T03:12:13.633Z,8.83
2018-09-28T03:14:42.117Z,11.35
2018-09-28T03:17:11.275Z,8.20
2018-09-28T03:19:40.761Z,8.13
2018-09-28T03:22:09.256Z,10.45
2018-09-28T03:24:37.749Z,12.58
2018-09-28T03:27:06.245Z,7.90
2018-09-28T03:29:35.060Z,8.70
2018-09-28T03:32:03.526Z,8.80
2018-09-28T03:34:32.401Z,10.13
2018-09-28T03:37:00.923Z,12.18
2018-09-28T03:39:29.729Z,7.62
2018-09-28T03:41:58.205Z,9.90
2018-09-28T03:44:26.720Z,9.08
2018-09-28T03:46:55.200Z,9.28
2018-09-28T03:49:24.129Z,15.25
2018-09-28T03:51:52.608Z,8.25
2018-09-28T03:54:21.081Z,6.70
2018-09-28T03:56:49.573Z,9.35
2018-09-28T03:59:18.759Z,11.40
2018-09-28T04:01:47.625Z,9.23
2018-09-28T04:04:16.094Z,7.92
2018-09-28T04:06:45.279Z,7.92
2018-09-28T04:09:13.781Z,14.20
2018-09-28T04:11:42.326Z,12.58
2018-09-28T04:14:10.838Z,9.58
2018-09-28T04:16:39.329Z,15.48
2018-09-28T04:19:09.281Z,10.93
2018-09-28T04:21:38.443Z,8.83
2018-09-28T04:24:07.141Z,13.50
2018-09-28T04:26:36.029Z,15.03
2018-09-28T04:29:04.858Z,10.80
2018-09-28T04:31:33.334Z,7.17
2018-09-28T04:34:01.837Z,7.28
2018-09-28T04:36:30.336Z,8.40
2018-09-28T04:38:58.817Z,12.63
2018-09-28T04:41:27.657Z,10.03
2018-09-28T04:43:56.177Z,10.78
2018-09-28T04:46:25.077Z,11.03
2018-09-28T04:48:53.570Z,9.83
2018-09-28T04:51:22.838Z,16.32
2018-09-28T04:53:51.830Z,10.70
2018-09-28T04:56:20.957Z,11.78
2018-09-28T04:58:49.517Z,9.15
2018-09-28T05:01:18.365Z,11.38
2018-09-28T05:03:46.873Z,14.07
2018-09-28T05:06:15.621Z,12.20
2018-09-28T05:08:44.490Z,11.63
2018-09-28T05:11:13.169Z,10.48
2018-09-28T05:13:42.039Z,15.63
2018-09-28T05:16:10.581Z,13.10
2018-09-28T05:18:39.435Z,12.13
2018-09-28T05:21:08.280Z,15.75
2018-09-28T05:23:37.620Z,13.32
2018-09-28T05:26:06.275Z,13.68
2018-09-28T05:28:49.680Z,11.60
2018-09-28T05:31:20.062Z,12.93
2018-09-28T05:33:48.884Z,13.75
2018-09-28T05:36:17.466Z,15.83
2018-09-28T05:38:50.525Z,12.80
2018-09-28T05:41:19.176Z,10.53
2018-09-28T05:43:48.075Z,11.75
2018-09-28T05:46:17.180Z,26.12
2018-09-28T05:48:46.185Z,29.27
2018-09-28T05:51:15.713Z,35.33
2018-09-28T05:53:44.673Z,11.40
2018-09-28T05:56:14.904Z,26.25
2018-09-28T05:58:48.788Z,27.22
2018-09-28T06:01:23.504Z,12.98
2018-09-28T06:03:58.139Z,12.80
2018-09-28T06:06:27.001Z,19.80
2018-09-28T06:08:55.847Z,15.08
2018-09-28T06:11:25.519Z,13.55
2018-09-28T06:13:54.040Z,14.05
2018-09-28T06:16:22.894Z,16.65
2018-09-28T06:18:51.435Z,12.18
2018-09-28T06:21:20.618Z,11.63
2018-09-28T06:23:49.596Z,13.80
2018-09-28T06:26:18.458Z,19.87
2018-09-28T06:28:47.282Z,13.30
2018-09-28T06:31:15.826Z,11.85
2018-09-28T06:33:44.312Z,12.60
2018-09-28T06:36:13.135Z,15.90
2018-09-28T06:38:41.816Z,16.97
2018-09-28T06:41:10.326Z,18.10
2018-09-28T06:43:39.177Z,17.00
2018-09-28T06:46:08.077Z,13.00
2018-09-28T06:48:36.590Z,14.50
2018-09-28T06:51:05.104Z,13.60
2018-09-28T06:53:33.609Z,16.20
2018-09-28T06:56:02.432Z,13.50
2018-09-28T06:58:30.922Z,15.05
2018-09-28T07:01:00.272Z,16.42
2018-09-28T07:03:28.744Z,18.40
2018-09-28T07:05:57.993Z,17.57
2018-09-28T07:08:26.918Z,24.15
2018-09-28T07:10:55.411Z,21.07
2018-09-28T07:13:24.240Z,17.35
2018-09-28T07:15:53.401Z,25.70
2018-09-28T07:18:21.961Z,14.00
2018-09-28T07:20:50.584Z,21.93
2018-09-28T07:23:19.995Z,19.48
2018-09-28T07:25:48.680Z,19.77
2018-09-28T07:28:17.542Z,11.90
2018-09-28T07:30:46.053Z,20.00
2018-09-28T07:33:14.684Z,20.15
2018-09-28T07:35:43.561Z,15.08
2018-09-28T07:38:12.909Z,15.60
2018-09-28T07:40:41.409Z,15.20
2018-09-28T07:43:09.934Z,19.92
2018-09-28T07:45:38.813Z,19.23
2018-09-28T07:48:07.699Z,14.83
2018-09-28T07:50:36.556Z,16.15
2018-09-28T07:53:05.713Z,15.48
2018-09-28T07:55:34.581Z,18.23
2018-09-28T07:58:03.453Z,19.05
2018-09-28T08:00:31.980Z,18.57
2018-09-28T08:03:01.866Z,25.88
2018-09-28T08:05:30.698Z,22.25
2018-09-28T08:08:00.162Z,19.90
2018-09-28T08:10:29.017Z,22.95
2018-09-28T08:12:57.502Z,25.45
2018-09-28T08:15:26.033Z,24.07
2018-09-28T08:17:54.964Z,24.32
2018-09-28T08:20:23.582Z,21.93
2018-09-28T08:22:52.098Z,23.07
2018-09-28T08:25:20.975Z,23.15
2018-09-28T08:27:49.480Z,24.20
2018-09-28T08:30:18.037Z,21.82
2018-09-28T08:32:46.993Z,20.48
2018-09-28T08:35:17.396Z,25.55
2018-09-28T08:37:46.917Z,24.65
2018-09-28T08:40:15.772Z,26.70
2018-09-28T08:42:44.380Z,28.87
2018-09-28T08:45:12.881Z,21.82
2018-09-28T08:47:41.363Z,22.02
2018-09-28T08:50:10.234Z,34.18
2018-09-28T08:52:39.016Z,26.42
2018-09-28T08:55:07.921Z,28.52
2018-09-28T08:57:36.437Z,26.17
2018-09-28T09:00:05.080Z,24.25
2018-09-28T09:02:33.940Z,35.23
2018-09-28T09:05:02.460Z,26.62
2018-09-28T09:07:31.052Z,28.23
2018-09-28T09:09:59.580Z,30.12
2018-09-28T09:12:28.093Z,36.08
2018-09-28T09:14:56.963Z,29.18
2018-09-28T09:17:25.810Z,32.65
2018-09-28T09:19:54.991Z,25.40
2018-09-28T09:22:23.505Z,32.58
2018-09-28T09:24:52.030Z,31.40
2018-09-28T09:27:20.521Z,26.40
2018-09-28T09:29:50.026Z,33.73
2018-09-28T09:32:18.922Z,27.75
2018-09-28T09:34:47.452Z,28.17
2018-09-28T09:37:16.336Z,28.25
2018-09-28T09:39:45.193Z,32.48
2018-09-28T09:42:13.719Z,28.30
2018-09-28T09:44:42.620Z,31.37
2018-09-28T09:47:11.138Z,30.30
2018-09-28T09:49:40.091Z,25.45
2018-09-28T09:52:08.619Z,31.15
2018-09-28T09:54:37.133Z,26.00
2018-09-28T09:57:05.653Z,33.50
2018-09-28T09:59:34.729Z,33.70
2018-09-28T10:02:08.979Z,25.20
2018-09-28T10:04:37.991Z,29.02
2018-09-28T10:07:06.841Z,29.67
2018-09-28T10:09:35.422Z,28.05
2018-09-28T10:12:04.880Z,28.65
2018-09-28T10:14:34.336Z,30.00
2018-09-28T10:17:02.857Z,32.93
2018-09-28T10:19:31.432Z,35.52
2018-09-28T10:22:00.585Z,31.30
2018-09-28T10:24:29.425Z,42.38
2018-09-28T10:26:58.449Z,37.70
2018-09-28T10:29:27.137Z,32.13
2018-09-28T10:31:56.320Z,34.33
2018-09-28T10:34:24.899Z,35.63
2018-09-28T10:36:54.253Z,35.65
2018-09-28T10:39:23.104Z,32.93
2018-09-28T10:41:51.797Z,45.30
2018-09-28T10:44:20.664Z,27.50
2018-09-28T10:46:49.559Z,33.00
2018-09-28T10:49:18.413Z,35.33
2018-09-28T10:51:47.154Z,28.35
2018-09-28T10:54:15.788Z,31.77
2018-09-28T10:56:44.285Z,30.08
2018-09-28T10:59:13.297Z,28.47
2018-09-28T11:01:41.825Z,40.05
2018-09-28T11:04:10.748Z,36.98
2018-09-28T11:06:39.794Z,29.98
2018-09-28T11:09:10.481Z,31.85
2018-09-28T11:11:40.083Z,29.57
2018-09-28T11:14:08.957Z,26.50
2018-09-28T11:16:37.953Z,29.37
2018-09-28T11:19:06.490Z,24.92
2018-09-28T11:21:36.309Z,25.72
2018-09-28T11:24:06.115Z,21.55
2018-09-28T11:26:35.517Z,20.30
2018-09-28T11:29:04.337Z,21.02
2018-09-28T11:31:32.825Z,18.75
2018-09-28T11:34:01.340Z,20.70
2018-09-28T11:36:30.540Z,20.02
2018-09-28T11:39:00.111Z,16.62
2018-09-28T11:41:29.064Z,16.57
2018-09-28T11:43:57.552Z,20.32
2018-09-28T11:46:26.417Z,22.30
2018-09-28T11:48:54.956Z,15.32
2018-09-28T11:51:23.897Z,19.32
2018-09-28T11:53:52.997Z,15.80
2018-09-28T11:56:23.472Z,24.98
2018-09-28T11:58:51.983Z,16.23
2018-09-28T12:01:20.844Z,13.25
2018-09-28T12:03:49.486Z,13.70
2018-09-28T12:06:18.480Z,11.97
2018-09-28T12:08:47.484Z,12.18
2018-09-28T12:11:16.702Z,12.85
2018-09-28T12:13:45.245Z,11.85
2018-09-28T12:16:14.102Z,9.28
2018-09-28T12:18:43.234Z,12.82
2018-09-28T12:21:12.051Z,11.00
2018-09-28T12:23:41.071Z,11.50
2018-09-28T12:26:09.904Z,13.28
2018-09-28T12:28:38.400Z,12.45
2018-09-28T12:31:07.261Z,9.85
2018-09-28T12:33:36.165Z,11.68
2018-09-28T12:36:05.823Z,12.63
2018-09-28T12:38:34.304Z,15.45
2018-09-28T12:41:03.467Z,12.13
2018-09-28T12:43:35.033Z,10.85
2018-09-28T12:46:01.029Z,12.65
2018-09-28T12:48:29.569Z,19.10
2018-09-28T12:50:59.256Z,14.23
2018-09-28T12:53:28.126Z,13.53
2018-09-28T12:55:56.818Z,23.12
2018-09-28T12:58:25.546Z,22.32
2018-09-28T13:00:54.277Z,21.82
2018-09-28T13:03:23.022Z,19.73
2018-09-28T13:05:52.786Z,19.73
2018-09-28T13:08:21.432Z,21.15
2018-09-28T13:10:51.078Z,18.37
2018-09-28T13:13:19.890Z,17.12
2018-09-28T13:15:48.907Z,20.43
2018-09-28T13:18:17.469Z,20.97
2018-09-28T13:20:46.163Z,19.52
2018-09-28T13:23:14.840Z,16.05
2018-09-28T13:25:43.606Z,21.45
2018-09-28T13:28:12.223Z,20.60
2018-09-28T13:30:41.143Z,19.35
2018-09-28T13:33:10.215Z,16.62
2018-09-28T13:35:39.061Z,17.95
2018-09-28T13:38:08.270Z,25.50
2018-09-28T13:40:37.625Z,17.60
2018-09-28T13:43:06.859Z,15.60
2018-09-28T13:45:35.471Z,17.87
2018-09-28T13:48:04.423Z,22.37
2018-09-28T13:50:32.959Z,19.55
2018-09-28T13:53:01.627Z,18.30
2018-09-28T13:55:30.445Z,23.50
2018-09-28T13:57:59.315Z,21.90
2018-09-28T14:00:27.894Z,16.45
2018-09-28T14:02:56.557Z,21.05
2018-09-28T14:05:25.105Z,17.10
2018-09-28T14:07:53.977Z,18.37
2018-09-28T14:10:22.593Z,18.25
2018-09-28T14:12:51.266Z,21.68
2018-09-28T14:15:19.769Z,29.52
2018-09-28T14:17:48.621Z,17.62
2018-09-28T14:20:19.052Z,24.55
2018-09-28T14:22:47.743Z,20.05
2018-09-28T14:25:16.400Z,15.90
2018-09-28T14:27:45.032Z,23.62
2018-09-28T14:30:13.881Z,24.23
2018-09-28T14:32:42.651Z,21.30
2018-09-28T14:35:12.848Z,21.10
2018-09-28T14:37:41.399Z,25.15
2018-09-28T14:40:10.686Z,17.65
2018-09-28T14:42:39.784Z,24.63
2018-09-28T14:45:10.001Z,25.48
2018-09-28T14:47:38.892Z,22.35
2018-09-28T14:50:07.804Z,21.12
2018-09-28T14:52:37.284Z,23.75
2018-09-28T14:55:05.965Z,22.62
2018-09-28T14:57:34.479Z,19.95
2018-09-28T15:00:03.446Z,22.70
2018-09-28T15:02:32.521Z,32.67
2018-09-28T15:05:01.575Z,25.12
2018-09-28T15:07:30.151Z,23.77
2018-09-28T15:09:58.828Z,24.92
2018-09-28T15:12:27.393Z,22.50
2018-09-28T15:14:56.416Z,22.73
2018-09-28T15:17:26.982Z,18.35
2018-09-28T15:19:55.514Z,19.85
2018-09-28T15:22:24.408Z,22.87
2018-09-28T15:24:53.272Z,18.67
2018-09-28T15:27:22.007Z,17.17
2018-09-28T15:29:50.845Z,20.43
2018-09-28T15:32:19.388Z,15.88
2018-09-28T15:34:48.413Z,20.00
2018-09-28T15:37:17.289Z,10.93
2018-09-28T15:39:45.819Z,10.65
2018-09-28T15:42:14.367Z,10.72
2018-09-28T15:44:42.901Z,11.97
2018-09-28T15:47:11.473Z,10.23
2018-09-28T15:49:40.388Z,18.23
2018-09-28T15:52:08.881Z,12.35
2018-09-28T15:54:37.387Z,11.05
2018-09-28T15:57:08.988Z,11.12
2018-09-28T15:59:37.891Z,9.68
2018-09-28T16:02:06.897Z,11.55
2018-09-28T16:04:35.407Z,11.73
2018-09-28T16:07:04.627Z,13.45
2018-09-28T16:09:33.341Z,13.00
2018-09-28T16:12:01.902Z,9.88
2018-09-28T16:14:30.897Z,16.37
2018-09-28T16:16:59.431Z,7.80
2018-09-28T16:19:29.116Z,9.60
2018-09-28T16:21:57.641Z,7.78
2018-09-28T16:24:26.555Z,7.90
2018-09-28T16:26:55.095Z,11.12
2018-09-28T16:30:48.220Z,16.90
2018-09-28T16:33:17.090Z,15.58
2018-09-28T16:35:45.945Z,15.20
2018-09-28T16:38:14.477Z,11.55
2018-09-28T16:40:43.368Z,12.88
2018-09-28T16:43:12.796Z,8.08
2018-09-28T16:45:41.321Z,11.28
2018-09-28T16:48:10.135Z,17.92
2018-09-28T16:50:38.833Z,14.23
2018-09-28T16:53:07.461Z,11.60
2018-09-28T16:55:36.415Z,11.30
2018-09-28T16:58:05.062Z,13.60
2018-09-28T17:00:33.588Z,6.83
2018-09-28T17:03:02.250Z,11.90
2018-09-28T17:05:30.772Z,13.93
2018-09-28T17:07:59.380Z,14.43
2018-09-28T17:10:29.592Z,42.00
2018-09-28T17:12:59.035Z,12.13
2018-09-28T17:15:28.541Z,8.68
2018-09-28T17:17:57.197Z,6.70
2018-09-28T17:20:26.447Z,9.08
2018-09-28T17:22:55.027Z,8.68
2018-09-28T17:25:24.023Z,13.83
2018-09-28T17:27:52.942Z,13.13
2018-09-28T17:30:21.837Z,8.75
2018-09-28T17:32:51.317Z,15.72
2018-09-28T17:35:19.869Z,9.13
2018-09-28T17:37:48.448Z,6.85
2018-09-28T17:40:17.494Z,13.30
2018-09-28T17:42:46.608Z,10.80
2018-09-28T17:45:15.336Z,22.30
2018-09-28T17:47:44.226Z,15.08
2018-09-28T17:50:13.754Z,10.63
2018-09-28T17:52:42.710Z,8.70
2018-09-28T17:55:11.244Z,17.60
2018-09-28T17:57:39.838Z,13.05
2018-09-28T18:00:09.208Z,5.78
2018-09-28T18:02:38.355Z,12.47
2018-09-28T18:05:06.934Z,13.18
2018-09-28T18:07:35.579Z,14.65
2018-09-28T18:10:04.909Z,17.55
2018-09-28T18:12:34.678Z,10.60
2018-09-28T18:15:03.756Z,8.75
2018-09-28T18:17:36.305Z,14.65
2018-09-28T18:20:05.371Z,6.83
2018-09-28T18:22:34.236Z,16.87
2018-09-28T18:25:05.856Z,7.10
2018-09-28T18:27:43.317Z,11.85
2018-09-28T18:30:13.660Z,10.95
2018-09-28T18:32:44.648Z,5.78
2018-09-28T18:35:13.546Z,14.45
2018-09-28T18:37:42.382Z,8.35
2018-09-28T18:40:11.750Z,15.58
2018-09-28T18:42:41.433Z,7.92
2018-09-28T18:45:10.361Z,12.33
2018-09-28T18:47:38.913Z,13.15
2018-09-28T18:50:08.577Z,8.58
2018-09-28T18:52:39.206Z,5.62
2018-09-28T18:55:07.725Z,7.08
2018-09-28T18:57:37.340Z,12.53
2018-09-28T19:00:07.272Z,7.67
2018-09-28T19:02:36.506Z,9.03
2018-09-28T19:05:05.120Z,7.08
2018-09-28T19:07:33.787Z,7.72
2018-09-28T19:10:03.311Z,5.62
2018-09-28T19:12:32.483Z,10.65
2018-09-28T19:15:01.523Z,12.95
2018-09-28T19:17:30.133Z,6.85
2018-09-28T19:19:58.771Z,13.58
2018-09-28T19:22:27.430Z,12.07
2018-09-28T19:24:56.074Z,7.05
2018-09-28T19:27:25.409Z,12.07
2018-09-28T19:30:01.849Z,14.07
2018-09-28T19:32:31.001Z,9.23
2018-09-28T19:35:09.334Z,8.75
2018-09-28T19:37:38.165Z,8.15
2018-09-28T19:40:09.970Z,8.18
2018-09-28T19:42:38.625Z,7.90
2018-09-28T19:45:08.363Z,8.05
2018-09-28T19:47:36.880Z,4.15
2018-09-28T19:50:05.737Z,6.60
2018-09-28T19:53:37.940Z,17.40
2018-09-28T19:56:06.500Z,14.38
2018-09-28T19:58:35.396Z,7.55
2018-09-28T20:01:04.667Z,8.38
2018-09-28T20:03:33.556Z,8.58
2018-09-28T20:06:02.734Z,9.55
2018-09-28T20:08:31.809Z,7.00
2018-09-28T20:11:00.312Z,11.85
2018-09-28T20:13:28.855Z,12.53
2018-09-28T20:15:57.373Z,6.70
2018-09-28T20:18:26.225Z,4.75
2018-09-28T20:20:55.070Z,9.93
2018-09-28T20:23:23.626Z,11.03
2018-09-28T20:25:52.912Z,10.65
2018-09-28T20:28:22.325Z,10.65
2018-09-28T20:30:51.800Z,11.33
2018-09-28T20:33:21.036Z,12.88
2018-09-28T20:35:49.638Z,15.08
2018-09-28T20:38:19.217Z,8.45
2018-09-28T20:40:47.878Z,12.47
2018-09-28T20:43:16.437Z,10.00
2018-09-28T20:45:44.992Z,12.30
2018-09-28T20:48:13.853Z,8.68
2018-09-28T20:50:43.030Z,9.55
2018-09-28T20:53:11.524Z,13.55
2018-09-28T20:55:41.633Z,11.50
2018-09-28T20:58:10.305Z,6.60
2018-09-28T21:00:38.800Z,8.40
2018-09-28T21:03:07.295Z,16.70
2018-09-28T21:05:35.785Z,13.00
2018-09-28T21:08:04.267Z,7.58
2018-09-28T21:10:32.956Z,9.43
2018-09-28T21:13:01.473Z,15.78
2018-09-28T21:15:30.024Z,8.25
2018-09-28T21:17:58.872Z,11.70
2018-09-28T21:20:27.704Z,12.23
2018-09-28T21:22:56.693Z,10.23
2018-09-28T21:25:25.538Z,7.92
2018-09-28T21:27:54.068Z,16.57
2018-09-28T21:30:22.565Z,10.90
2018-09-28T21:32:51.077Z,11.53
2018-09-28T21:35:20.300Z,21.75
2018-09-28T21:37:49.360Z,12.18
2018-09-28T21:40:18.257Z,9.00
2018-09-28T21:42:47.533Z,11.80
2018-09-28T21:45:16.672Z,10.18
2018-09-28T21:47:45.163Z,10.68
2018-09-28T21:50:14.034Z,8.58
2018-09-28T21:52:42.574Z,11.12
2018-09-28T21:55:11.103Z,6.55
2018-09-28T21:57:40.034Z,13.30
2018-09-28T22:00:16.448Z,13.68
2018-09-28T22:02:44.984Z,10.28
2018-09-28T22:05:13.532Z,11.15
2018-09-28T22:07:42.405Z,10.58
2018-09-28T22:10:11.630Z,13.48
2018-09-28T22:12:40.460Z,10.48
2018-09-28T22:15:09.671Z,8.25
2018-09-28T22:17:38.520Z,9.58
2018-09-28T22:20:07.403Z,10.60
2018-09-28T22:22:35.953Z,9.28
2018-09-28T22:25:04.461Z,8.75
2018-09-28T22:27:32.993Z,20.45
2018-09-28T22:30:01.513Z,9.93
2018-09-28T22:32:30.118Z,10.50
2018-09-28T22:34:59.028Z,14.05
2018-09-28T22:37:28.323Z,9.28
2018-09-28T22:39:56.823Z,9.03
2018-09-28T22:42:25.316Z,12.15
2018-09-28T22:44:53.830Z,10.20
2018-09-28T22:47:22.678Z,8.48
2018-09-28T22:49:51.203Z,12.05
2018-09-28T22:52:20.053Z,12.15
2018-09-28T22:54:48.587Z,8.15
2018-09-28T22:57:17.757Z,9.60
2018-09-28T22:59:46.590Z,7.08
2018-09-28T23:02:15.092Z,11.05
2018-09-28T23:04:43.909Z,10.50
2018-09-28T23:07:12.430Z,11.50
2018-09-28T23:09:41.247Z,9.50
2018-09-28T23:12:09.753Z,7.50
2018-09-28T23:14:38.245Z,11.00
2018-09-28T23:17:06.872Z,12.93
2018-09-28T23:19:35.441Z,9.70
2018-09-28T23:22:05.320Z,10.93
2018-09-28T23:24:33.956Z,9.80
2018-09-28T23:27:02.465Z,12.98
2018-09-28T23:29:30.966Z,11.48
2018-09-28T23:31:59.459Z,14.00
2018-09-28T23:34:27.969Z,10.72
2018-09-28T23:36:56.841Z,7.17
2018-09-28T23:39:25.369Z,11.83
2018-09-28T23:41:53.873Z,11.83
2018-09-28T23:44:22.446Z,9.03
2018-09-28T23:46:51.298Z,7.65
2018-09-28T23:49:19.797Z,15.38
2018-09-28T23:51:48.304Z,8.78
2018-09-28T23:54:16.802Z,7.67
2018-09-28T23:56:46.035Z,11.15
2018-09-28T23:59:14.575Z,9.05
